sensor_id;sensor_type;location;lat;lon;timestamp;P1;durP1;ratioP1;P2;durP2;ratioP2
51525;SDS011;37611;51.794;21.590;2022-12-10T00:00:40;891.00;;;642.90;;
51525;SDS011;37611;51.794;21.590;2022-12-10T00:04:50;322.70;;;187.30;;
51525;SDS011;37611;51.794;21.590;2022-12-10T00:08:53;897.00;;;527.70;;
51525;SDS011;37611;51.794;21.590;2022-12-10T00:12:55;838.90;;;489.50;;
51525;SDS011;37611;51.794;21.590;2022-12-10T00:16:57;415.10;;;244.00;;
51525;SDS011;37611;51.794;21.590;2022-12-10T00:21:01;179.30;;;111.90;;
51525;SDS011;37611;51.794;21.590;2022-12-10T00:25:07;77.30;;;58.80;;
51525;SDS011;37611;51.794;21.590;2022-12-10T00:29:09;67.90;;;53.70;;
51525;SDS011;37611;51.794;21.590;2022-12-10T00:33:13;62.50;;;48.00;;
51525;SDS011;37611;51.794;21.590;2022-12-10T00:37:14;58.70;;;45.70;;
51525;SDS011;37611;51.794;21.590;2022-12-10T00:41:17;53.90;;;40.20;;
51525;SDS011;37611;51.794;21.590;2022-12-10T00:45:19;52.30;;;40.30;;
51525;SDS011;37611;51.794;21.590;2022-12-10T00:49:20;54.10;;;41.30;;
51525;SDS011;37611;51.794;21.590;2022-12-10T00:53:24;50.00;;;39.90;;
51525;SDS011;37611;51.794;21.590;2022-12-10T00:57:27;57.40;;;42.90;;
51525;SDS011;37611;51.794;21.590;2022-12-10T01:01:33;53.60;;;41.10;;
51525;SDS011;37611;51.794;21.590;2022-12-10T01:05:37;54.50;;;38.00;;
51525;SDS011;37611;51.794;21.590;2022-12-10T01:09:39;57.20;;;40.30;;
51525;SDS011;37611;51.794;21.590;2022-12-10T01:13:41;56.00;;;41.70;;
51525;SDS011;37611;51.794;21.590;2022-12-10T01:17:44;53.70;;;39.60;;
51525;SDS011;37611;51.794;21.590;2022-12-10T01:21:49;47.90;;;35.70;;
51525;SDS011;37611;51.794;21.590;2022-12-10T01:25:58;48.90;;;36.90;;
51525;SDS011;37611;51.794;21.590;2022-12-10T01:30:01;51.80;;;38.40;;
51525;SDS011;37611;51.794;21.590;2022-12-10T01:34:04;51.20;;;37.10;;
51525;SDS011;37611;51.794;21.590;2022-12-10T01:38:07;48.00;;;37.80;;
51525;SDS011;37611;51.794;21.590;2022-12-10T01:42:09;50.60;;;37.10;;
51525;SDS011;37611;51.794;21.590;2022-12-10T01:46:14;45.70;;;34.90;;
51525;SDS011;37611;51.794;21.590;2022-12-10T01:50:16;46.00;;;34.40;;
51525;SDS011;37611;51.794;21.590;2022-12-10T01:54:22;46.30;;;34.40;;
51525;SDS011;37611;51.794;21.590;2022-12-10T01:58:30;43.30;;;32.90;;
51525;SDS011;37611;51.794;21.590;2022-12-10T02:02:42;45.00;;;32.20;;
51525;SDS011;37611;51.794;21.590;2022-12-10T02:15:40;42.60;;;31.80;;
51525;SDS011;37611;51.794;21.590;2022-12-10T02:19:59;43.90;;;32.00;;
51525;SDS011;37611;51.794;21.590;2022-12-10T02:24:06;40.10;;;30.70;;
51525;SDS011;37611;51.794;21.590;2022-12-10T02:32:22;42.40;;;30.50;;
51525;SDS011;37611;51.794;21.590;2022-12-10T02:36:27;39.70;;;29.00;;
51525;SDS011;37611;51.794;21.590;2022-12-10T02:40:33;40.50;;;29.30;;
51525;SDS011;37611;51.794;21.590;2022-12-10T02:44:39;42.70;;;30.40;;
51525;SDS011;37611;51.794;21.590;2022-12-10T02:48:43;42.10;;;29.40;;
51525;SDS011;37611;51.794;21.590;2022-12-10T02:52:48;38.00;;;25.80;;
51525;SDS011;37611;51.794;21.590;2022-12-10T02:56:51;38.80;;;27.40;;
51525;SDS011;37611;51.794;21.590;2022-12-10T03:01:14;38.80;;;28.00;;
51525;SDS011;37611;51.794;21.590;2022-12-10T03:05:32;34.20;;;23.90;;
51525;SDS011;37611;51.794;21.590;2022-12-10T03:09:37;34.80;;;23.90;;
51525;SDS011;37611;51.794;21.590;2022-12-10T03:13:52;32.50;;;23.00;;
51525;SDS011;37611;51.794;21.590;2022-12-10T03:17:58;34.40;;;24.20;;
51525;SDS011;37611;51.794;21.590;2022-12-10T03:22:04;31.50;;;22.70;;
51525;SDS011;37611;51.794;21.590;2022-12-10T03:26:08;31.30;;;23.00;;
51525;SDS011;37611;51.794;21.590;2022-12-10T03:30:11;30.60;;;21.70;;
51525;SDS011;37611;51.794;21.590;2022-12-10T03:34:13;32.30;;;22.50;;
51525;SDS011;37611;51.794;21.590;2022-12-10T03:38:16;32.50;;;22.00;;
51525;SDS011;37611;51.794;21.590;2022-12-10T03:42:18;25.20;;;19.10;;
51525;SDS011;37611;51.794;21.590;2022-12-10T03:46:20;25.20;;;18.70;;
51525;SDS011;37611;51.794;21.590;2022-12-10T03:50:23;23.80;;;18.30;;
51525;SDS011;37611;51.794;21.590;2022-12-10T03:54:25;26.10;;;18.70;;
51525;SDS011;37611;51.794;21.590;2022-12-10T03:58:27;27.10;;;20.30;;
51525;SDS011;37611;51.794;21.590;2022-12-10T04:02:29;26.00;;;18.80;;
51525;SDS011;37611;51.794;21.590;2022-12-10T04:06:31;23.40;;;17.60;;
51525;SDS011;37611;51.794;21.590;2022-12-10T04:10:38;25.70;;;18.20;;
51525;SDS011;37611;51.794;21.590;2022-12-10T04:14:40;23.80;;;18.00;;
51525;SDS011;37611;51.794;21.590;2022-12-10T04:19:02;23.40;;;16.80;;
51525;SDS011;37611;51.794;21.590;2022-12-10T04:23:06;24.00;;;16.90;;
51525;SDS011;37611;51.794;21.590;2022-12-10T04:27:32;24.40;;;17.50;;
51525;SDS011;37611;51.794;21.590;2022-12-10T04:31:36;24.70;;;17.20;;
51525;SDS011;37611;51.794;21.590;2022-12-10T04:35:38;22.90;;;16.20;;
51525;SDS011;37611;51.794;21.590;2022-12-10T04:39:40;18.00;;;14.10;;
51525;SDS011;37611;51.794;21.590;2022-12-10T04:43:42;21.50;;;15.70;;
51525;SDS011;37611;51.794;21.590;2022-12-10T04:47:44;21.70;;;15.80;;
51525;SDS011;37611;51.794;21.590;2022-12-10T04:51:46;21.10;;;14.90;;
51525;SDS011;37611;51.794;21.590;2022-12-10T04:55:48;20.50;;;15.00;;
51525;SDS011;37611;51.794;21.590;2022-12-10T04:59:50;19.40;;;14.70;;
51525;SDS011;37611;51.794;21.590;2022-12-10T05:03:52;21.40;;;16.10;;
51525;SDS011;37611;51.794;21.590;2022-12-10T05:07:54;21.20;;;16.30;;
51525;SDS011;37611;51.794;21.590;2022-12-10T05:11:56;27.80;;;19.80;;
51525;SDS011;37611;51.794;21.590;2022-12-10T05:15:57;27.40;;;19.70;;
51525;SDS011;37611;51.794;21.590;2022-12-10T05:20:02;27.90;;;18.80;;
51525;SDS011;37611;51.794;21.590;2022-12-10T05:24:05;26.20;;;18.80;;
51525;SDS011;37611;51.794;21.590;2022-12-10T05:28:07;25.30;;;19.60;;
51525;SDS011;37611;51.794;21.590;2022-12-10T05:32:09;26.80;;;18.30;;
51525;SDS011;37611;51.794;21.590;2022-12-10T05:36:12;26.30;;;18.00;;
51525;SDS011;37611;51.794;21.590;2022-12-10T05:40:16;25.60;;;18.80;;
51525;SDS011;37611;51.794;21.590;2022-12-10T05:44:18;26.00;;;16.50;;
51525;SDS011;37611;51.794;21.590;2022-12-10T05:48:20;24.00;;;16.50;;
51525;SDS011;37611;51.794;21.590;2022-12-10T05:52:21;23.30;;;16.90;;
51525;SDS011;37611;51.794;21.590;2022-12-10T05:56:24;26.20;;;17.80;;
51525;SDS011;37611;51.794;21.590;2022-12-10T06:00:27;26.30;;;17.90;;
51525;SDS011;37611;51.794;21.590;2022-12-10T06:04:29;22.40;;;16.50;;
51525;SDS011;37611;51.794;21.590;2022-12-10T06:08:32;22.50;;;17.80;;
51525;SDS011;37611;51.794;21.590;2022-12-10T06:12:34;23.70;;;15.20;;
51525;SDS011;37611;51.794;21.590;2022-12-10T06:16:36;22.60;;;16.20;;
51525;SDS011;37611;51.794;21.590;2022-12-10T06:20:40;24.30;;;16.00;;
51525;SDS011;37611;51.794;21.590;2022-12-10T06:24:42;23.40;;;16.30;;
51525;SDS011;37611;51.794;21.590;2022-12-10T06:28:45;23.10;;;18.20;;
51525;SDS011;37611;51.794;21.590;2022-12-10T06:32:47;26.20;;;17.70;;
51525;SDS011;37611;51.794;21.590;2022-12-10T06:36:49;23.90;;;15.30;;
51525;SDS011;37611;51.794;21.590;2022-12-10T06:40:51;23.10;;;17.60;;
51525;SDS011;37611;51.794;21.590;2022-12-10T06:44:54;23.60;;;17.20;;
51525;SDS011;37611;51.794;21.590;2022-12-10T06:48:55;28.00;;;20.10;;
51525;SDS011;37611;51.794;21.590;2022-12-10T06:52:57;23.00;;;17.30;;
51525;SDS011;37611;51.794;21.590;2022-12-10T06:56:59;22.60;;;17.30;;
51525;SDS011;37611;51.794;21.590;2022-12-10T07:01:05;23.60;;;17.00;;
51525;SDS011;37611;51.794;21.590;2022-12-10T07:05:12;23.40;;;16.30;;
51525;SDS011;37611;51.794;21.590;2022-12-10T07:09:14;20.80;;;16.30;;
51525;SDS011;37611;51.794;21.590;2022-12-10T07:13:16;27.00;;;18.80;;
51525;SDS011;37611;51.794;21.590;2022-12-10T07:17:18;28.00;;;18.80;;
51525;SDS011;37611;51.794;21.590;2022-12-10T07:21:30;46.40;;;27.30;;
51525;SDS011;37611;51.794;21.590;2022-12-10T07:25:33;48.50;;;24.80;;
51525;SDS011;37611;51.794;21.590;2022-12-10T07:29:35;34.10;;;21.80;;
51525;SDS011;37611;51.794;21.590;2022-12-10T07:33:37;34.60;;;21.70;;
51525;SDS011;37611;51.794;21.590;2022-12-10T07:37:39;34.70;;;22.70;;
51525;SDS011;37611;51.794;21.590;2022-12-10T07:41:41;34.50;;;25.90;;
51525;SDS011;37611;51.794;21.590;2022-12-10T07:45:43;39.30;;;27.80;;
51525;SDS011;37611;51.794;21.590;2022-12-10T07:49:44;43.90;;;29.90;;
51525;SDS011;37611;51.794;21.590;2022-12-10T07:53:46;41.30;;;31.50;;
51525;SDS011;37611;51.794;21.590;2022-12-10T07:57:49;42.20;;;31.70;;
51525;SDS011;37611;51.794;21.590;2022-12-10T08:01:51;33.20;;;24.00;;
51525;SDS011;37611;51.794;21.590;2022-12-10T08:06:03;53.80;;;38.40;;
51525;SDS011;37611;51.794;21.590;2022-12-10T08:10:13;48.00;;;29.70;;
51525;SDS011;37611;51.794;21.590;2022-12-10T08:14:15;42.50;;;28.60;;
51525;SDS011;37611;51.794;21.590;2022-12-10T08:18:17;26.70;;;19.60;;
51525;SDS011;37611;51.794;21.590;2022-12-10T08:22:19;50.40;;;30.80;;
51525;SDS011;37611;51.794;21.590;2022-12-10T08:26:21;56.70;;;35.70;;
51525;SDS011;37611;51.794;21.590;2022-12-10T08:30:25;34.90;;;22.50;;
51525;SDS011;37611;51.794;21.590;2022-12-10T08:34:27;45.00;;;28.70;;
51525;SDS011;37611;51.794;21.590;2022-12-10T08:38:29;40.50;;;25.30;;
51525;SDS011;37611;51.794;21.590;2022-12-10T08:42:31;48.10;;;31.40;;
51525;SDS011;37611;51.794;21.590;2022-12-10T08:46:33;38.70;;;24.10;;
51525;SDS011;37611;51.794;21.590;2022-12-10T08:50:36;38.20;;;22.00;;
51525;SDS011;37611;51.794;21.590;2022-12-10T08:54:38;34.70;;;24.00;;
51525;SDS011;37611;51.794;21.590;2022-12-10T08:58:40;49.30;;;28.10;;
51525;SDS011;37611;51.794;21.590;2022-12-10T09:02:42;34.30;;;24.10;;
51525;SDS011;37611;51.794;21.590;2022-12-10T09:06:44;47.70;;;30.20;;
51525;SDS011;37611;51.794;21.590;2022-12-10T09:10:46;28.50;;;19.00;;
51525;SDS011;37611;51.794;21.590;2022-12-10T09:14:48;32.60;;;22.20;;
51525;SDS011;37611;51.794;21.590;2022-12-10T09:18:50;41.30;;;27.00;;
51525;SDS011;37611;51.794;21.590;2022-12-10T09:22:51;44.90;;;32.40;;
51525;SDS011;37611;51.794;21.590;2022-12-10T09:26:54;42.30;;;28.20;;
51525;SDS011;37611;51.794;21.590;2022-12-10T09:30:56;38.70;;;27.00;;
51525;SDS011;37611;51.794;21.590;2022-12-10T09:35:00;36.70;;;25.60;;
51525;SDS011;37611;51.794;21.590;2022-12-10T09:39:02;32.70;;;22.70;;
51525;SDS011;37611;51.794;21.590;2022-12-10T09:43:13;30.70;;;22.30;;
51525;SDS011;37611;51.794;21.590;2022-12-10T09:47:24;32.80;;;22.60;;
51525;SDS011;37611;51.794;21.590;2022-12-10T09:51:35;34.70;;;23.20;;
51525;SDS011;37611;51.794;21.590;2022-12-10T09:55:40;35.20;;;23.60;;
51525;SDS011;37611;51.794;21.590;2022-12-10T09:59:46;40.20;;;25.70;;
51525;SDS011;37611;51.794;21.590;2022-12-10T10:03:51;29.80;;;21.60;;
51525;SDS011;37611;51.794;21.590;2022-12-10T10:07:54;33.40;;;22.50;;
51525;SDS011;37611;51.794;21.590;2022-12-10T10:11:58;32.00;;;21.70;;
51525;SDS011;37611;51.794;21.590;2022-12-10T10:16:22;35.40;;;21.70;;
51525;SDS011;37611;51.794;21.590;2022-12-10T10:20:26;53.20;;;34.40;;
51525;SDS011;37611;51.794;21.590;2022-12-10T10:24:33;35.60;;;24.60;;
51525;SDS011;37611;51.794;21.590;2022-12-10T10:28:38;35.20;;;24.40;;
51525;SDS011;37611;51.794;21.590;2022-12-10T10:36:43;50.00;;;37.70;;
51525;SDS011;37611;51.794;21.590;2022-12-10T10:40:49;93.50;;;70.70;;
51525;SDS011;37611;51.794;21.590;2022-12-10T10:44:53;48.50;;;32.70;;
51525;SDS011;37611;51.794;21.590;2022-12-10T10:49:12;47.70;;;30.20;;
51525;SDS011;37611;51.794;21.590;2022-12-10T10:53:32;45.90;;;29.20;;
51525;SDS011;37611;51.794;21.590;2022-12-10T10:57:40;50.50;;;32.80;;
51525;SDS011;37611;51.794;21.590;2022-12-10T11:01:47;65.50;;;35.70;;
51525;SDS011;37611;51.794;21.590;2022-12-10T11:05:54;57.10;;;34.80;;
51525;SDS011;37611;51.794;21.590;2022-12-10T11:09:58;40.80;;;26.10;;
51525;SDS011;37611;51.794;21.590;2022-12-10T11:14:14;48.40;;;28.20;;
51525;SDS011;37611;51.794;21.590;2022-12-10T11:18:29;40.40;;;26.10;;
51525;SDS011;37611;51.794;21.590;2022-12-10T11:22:32;38.80;;;27.90;;
51525;SDS011;37611;51.794;21.590;2022-12-10T11:30:38;33.50;;;22.10;;
51525;SDS011;37611;51.794;21.590;2022-12-10T11:48:24;30.40;;;21.00;;
51525;SDS011;37611;51.794;21.590;2022-12-10T11:57:05;38.50;;;27.50;;
51525;SDS011;37611;51.794;21.590;2022-12-10T12:01:13;33.90;;;23.10;;
51525;SDS011;37611;51.794;21.590;2022-12-10T12:13:58;29.50;;;20.00;;
51525;SDS011;37611;51.794;21.590;2022-12-10T12:22:28;48.40;;;33.10;;
51525;SDS011;37611;51.794;21.590;2022-12-10T12:30:38;42.60;;;27.90;;
51525;SDS011;37611;51.794;21.590;2022-12-10T12:34:49;40.60;;;29.90;;
51525;SDS011;37611;51.794;21.590;2022-12-10T12:43:10;46.50;;;30.70;;
51525;SDS011;37611;51.794;21.590;2022-12-10T12:51:51;48.60;;;31.70;;
51525;SDS011;37611;51.794;21.590;2022-12-10T13:00:19;72.60;;;40.50;;
51525;SDS011;37611;51.794;21.590;2022-12-10T13:04:25;45.40;;;30.00;;
51525;SDS011;37611;51.794;21.590;2022-12-10T13:08:28;51.30;;;33.90;;
51525;SDS011;37611;51.794;21.590;2022-12-10T13:12:31;60.00;;;37.90;;
51525;SDS011;37611;51.794;21.590;2022-12-10T13:16:48;76.40;;;48.10;;
51525;SDS011;37611;51.794;21.590;2022-12-10T13:25:39;61.50;;;37.30;;
51525;SDS011;37611;51.794;21.590;2022-12-10T13:37:55;98.40;;;73.00;;
51525;SDS011;37611;51.794;21.590;2022-12-10T13:46:35;59.90;;;38.50;;
51525;SDS011;37611;51.794;21.590;2022-12-10T13:59:33;52.30;;;33.70;;
51525;SDS011;37611;51.794;21.590;2022-12-10T14:08:35;55.80;;;37.70;;
51525;SDS011;37611;51.794;21.590;2022-12-10T14:12:40;100.80;;;53.80;;
51525;SDS011;37611;51.794;21.590;2022-12-10T14:16:44;159.30;;;124.20;;
51525;SDS011;37611;51.794;21.590;2022-12-10T14:20:49;123.90;;;86.00;;
51525;SDS011;37611;51.794;21.590;2022-12-10T14:24:54;105.80;;;65.50;;
51525;SDS011;37611;51.794;21.590;2022-12-10T14:29:08;110.90;;;61.00;;
51525;SDS011;37611;51.794;21.590;2022-12-10T14:33:22;85.10;;;52.70;;
51525;SDS011;37611;51.794;21.590;2022-12-10T14:37:30;87.20;;;56.00;;
51525;SDS011;37611;51.794;21.590;2022-12-10T14:41:35;87.90;;;54.00;;
51525;SDS011;37611;51.794;21.590;2022-12-10T14:45:50;173.70;;;95.60;;
51525;SDS011;37611;51.794;21.590;2022-12-10T14:49:57;91.50;;;55.80;;
51525;SDS011;37611;51.794;21.590;2022-12-10T14:54:01;95.40;;;54.20;;
51525;SDS011;37611;51.794;21.590;2022-12-10T14:58:03;80.70;;;46.60;;
51525;SDS011;37611;51.794;21.590;2022-12-10T15:02:21;78.00;;;47.30;;
51525;SDS011;37611;51.794;21.590;2022-12-10T15:06:28;99.90;;;64.40;;
51525;SDS011;37611;51.794;21.590;2022-12-10T15:10:36;119.70;;;72.20;;
51525;SDS011;37611;51.794;21.590;2022-12-10T15:14:42;100.70;;;60.10;;
51525;SDS011;37611;51.794;21.590;2022-12-10T15:18:44;120.60;;;74.40;;
51525;SDS011;37611;51.794;21.590;2022-12-10T15:22:46;93.80;;;54.70;;
51525;SDS011;37611;51.794;21.590;2022-12-10T15:26:49;82.60;;;47.80;;
51525;SDS011;37611;51.794;21.590;2022-12-10T15:30:54;70.40;;;39.70;;
51525;SDS011;37611;51.794;21.590;2022-12-10T15:35:19;78.00;;;44.30;;
51525;SDS011;37611;51.794;21.590;2022-12-10T15:39:25;59.00;;;33.80;;
51525;SDS011;37611;51.794;21.590;2022-12-10T15:43:30;85.30;;;44.90;;
51525;SDS011;37611;51.794;21.590;2022-12-10T15:47:32;79.20;;;46.40;;
51525;SDS011;37611;51.794;21.590;2022-12-10T15:51:34;85.10;;;51.60;;
51525;SDS011;37611;51.794;21.590;2022-12-10T15:55:36;67.40;;;40.40;;
51525;SDS011;37611;51.794;21.590;2022-12-10T15:59:38;59.20;;;33.10;;
51525;SDS011;37611;51.794;21.590;2022-12-10T16:03:40;68.80;;;39.60;;
51525;SDS011;37611;51.794;21.590;2022-12-10T16:07:43;64.00;;;33.90;;
51525;SDS011;37611;51.794;21.590;2022-12-10T16:11:46;61.50;;;35.20;;
51525;SDS011;37611;51.794;21.590;2022-12-10T16:15:50;64.30;;;35.60;;
51525;SDS011;37611;51.794;21.590;2022-12-10T16:19:56;58.30;;;33.00;;
51525;SDS011;37611;51.794;21.590;2022-12-10T16:24:12;59.90;;;31.50;;
51525;SDS011;37611;51.794;21.590;2022-12-10T16:28:15;59.80;;;33.60;;
51525;SDS011;37611;51.794;21.590;2022-12-10T16:32:19;63.70;;;36.60;;
51525;SDS011;37611;51.794;21.590;2022-12-10T16:36:21;63.90;;;32.50;;
51525;SDS011;37611;51.794;21.590;2022-12-10T16:40:24;79.70;;;44.90;;
51525;SDS011;37611;51.794;21.590;2022-12-10T16:44:29;75.90;;;44.00;;
51525;SDS011;37611;51.794;21.590;2022-12-10T16:48:30;70.70;;;38.40;;
51525;SDS011;37611;51.794;21.590;2022-12-10T16:52:32;120.70;;;78.00;;
51525;SDS011;37611;51.794;21.590;2022-12-10T16:56:34;123.70;;;78.00;;
51525;SDS011;37611;51.794;21.590;2022-12-10T17:00:36;78.30;;;54.10;;
51525;SDS011;37611;51.794;21.590;2022-12-10T17:04:38;87.80;;;62.00;;
51525;SDS011;37611;51.794;21.590;2022-12-10T17:08:40;104.00;;;62.30;;
51525;SDS011;37611;51.794;21.590;2022-12-10T17:12:42;140.50;;;108.70;;
51525;SDS011;37611;51.794;21.590;2022-12-10T17:16:44;87.10;;;60.20;;
51525;SDS011;37611;51.794;21.590;2022-12-10T17:20:46;103.20;;;81.30;;
51525;SDS011;37611;51.794;21.590;2022-12-10T17:24:48;75.40;;;48.10;;
51525;SDS011;37611;51.794;21.590;2022-12-10T17:28:50;89.30;;;55.10;;
51525;SDS011;37611;51.794;21.590;2022-12-10T17:32:52;105.40;;;59.00;;
51525;SDS011;37611;51.794;21.590;2022-12-10T17:36:54;95.00;;;57.50;;
51525;SDS011;37611;51.794;21.590;2022-12-10T17:40:56;75.30;;;41.80;;
51525;SDS011;37611;51.794;21.590;2022-12-10T17:44:58;79.70;;;44.30;;
51525;SDS011;37611;51.794;21.590;2022-12-10T17:49:00;70.00;;;41.70;;
51525;SDS011;37611;51.794;21.590;2022-12-10T17:53:04;89.40;;;48.60;;
51525;SDS011;37611;51.794;21.590;2022-12-10T17:57:13;93.50;;;50.10;;
51525;SDS011;37611;51.794;21.590;2022-12-10T18:01:21;92.00;;;53.20;;
51525;SDS011;37611;51.794;21.590;2022-12-10T18:05:23;66.60;;;36.90;;
51525;SDS011;37611;51.794;21.590;2022-12-10T18:09:25;83.60;;;48.20;;
51525;SDS011;37611;51.794;21.590;2022-12-10T18:13:27;96.40;;;56.50;;
51525;SDS011;37611;51.794;21.590;2022-12-10T18:17:30;92.90;;;55.30;;
51525;SDS011;37611;51.794;21.590;2022-12-10T18:21:31;77.70;;;44.20;;
51525;SDS011;37611;51.794;21.590;2022-12-10T18:25:33;85.80;;;46.90;;
51525;SDS011;37611;51.794;21.590;2022-12-10T18:29:35;95.00;;;54.40;;
51525;SDS011;37611;51.794;21.590;2022-12-10T18:33:39;101.50;;;58.60;;
51525;SDS011;37611;51.794;21.590;2022-12-10T18:37:43;99.90;;;56.60;;
51525;SDS011;37611;51.794;21.590;2022-12-10T18:41:46;93.60;;;52.80;;
51525;SDS011;37611;51.794;21.590;2022-12-10T18:45:48;90.90;;;56.70;;
51525;SDS011;37611;51.794;21.590;2022-12-10T18:49:50;83.40;;;47.80;;
51525;SDS011;37611;51.794;21.590;2022-12-10T18:53:52;75.40;;;40.40;;
51525;SDS011;37611;51.794;21.590;2022-12-10T18:57:54;77.00;;;45.70;;
51525;SDS011;37611;51.794;21.590;2022-12-10T19:01:55;68.70;;;37.20;;
51525;SDS011;37611;51.794;21.590;2022-12-10T19:05:57;74.10;;;34.90;;
51525;SDS011;37611;51.794;21.590;2022-12-10T19:09:59;65.20;;;33.30;;
51525;SDS011;37611;51.794;21.590;2022-12-10T19:14:01;72.30;;;39.00;;
51525;SDS011;37611;51.794;21.590;2022-12-10T19:18:03;65.80;;;33.30;;
51525;SDS011;37611;51.794;21.590;2022-12-10T19:22:05;84.50;;;46.80;;
51525;SDS011;37611;51.794;21.590;2022-12-10T19:30:35;84.80;;;47.90;;
51525;SDS011;37611;51.794;21.590;2022-12-10T19:34:37;67.20;;;34.20;;
51525;SDS011;37611;51.794;21.590;2022-12-10T19:38:39;77.10;;;42.70;;
51525;SDS011;37611;51.794;21.590;2022-12-10T19:42:40;84.20;;;40.80;;
51525;SDS011;37611;51.794;21.590;2022-12-10T19:46:42;88.80;;;48.70;;
51525;SDS011;37611;51.794;21.590;2022-12-10T19:50:44;87.40;;;45.90;;
51525;SDS011;37611;51.794;21.590;2022-12-10T19:54:46;101.90;;;52.40;;
51525;SDS011;37611;51.794;21.590;2022-12-10T19:58:49;111.50;;;56.30;;
51525;SDS011;37611;51.794;21.590;2022-12-10T20:02:52;104.70;;;53.90;;
51525;SDS011;37611;51.794;21.590;2022-12-10T20:06:54;98.20;;;49.80;;
51525;SDS011;37611;51.794;21.590;2022-12-10T20:10:56;100.50;;;49.90;;
51525;SDS011;37611;51.794;21.590;2022-12-10T20:14:58;82.60;;;39.70;;
51525;SDS011;37611;51.794;21.590;2022-12-10T20:19:01;97.20;;;47.80;;
51525;SDS011;37611;51.794;21.590;2022-12-10T20:23:03;106.90;;;53.40;;
51525;SDS011;37611;51.794;21.590;2022-12-10T20:27:05;93.90;;;49.90;;
51525;SDS011;37611;51.794;21.590;2022-12-10T20:31:06;65.20;;;36.80;;
51525;SDS011;37611;51.794;21.590;2022-12-10T20:35:08;75.70;;;38.40;;
51525;SDS011;37611;51.794;21.590;2022-12-10T20:39:17;67.90;;;34.20;;
51525;SDS011;37611;51.794;21.590;2022-12-10T20:43:21;71.20;;;38.40;;
51525;SDS011;37611;51.794;21.590;2022-12-10T20:47:23;75.90;;;38.50;;
51525;SDS011;37611;51.794;21.590;2022-12-10T20:51:24;66.70;;;36.10;;
51525;SDS011;37611;51.794;21.590;2022-12-10T20:55:26;68.80;;;37.30;;
51525;SDS011;37611;51.794;21.590;2022-12-10T20:59:28;69.50;;;36.40;;
51525;SDS011;37611;51.794;21.590;2022-12-10T21:03:35;65.20;;;34.20;;
51525;SDS011;37611;51.794;21.590;2022-12-10T21:07:38;67.10;;;35.90;;
51525;SDS011;37611;51.794;21.590;2022-12-10T21:11:40;53.30;;;31.00;;
51525;SDS011;37611;51.794;21.590;2022-12-10T21:15:42;59.20;;;28.00;;
51525;SDS011;37611;51.794;21.590;2022-12-10T21:19:43;71.80;;;37.70;;
51525;SDS011;37611;51.794;21.590;2022-12-10T21:23:45;63.50;;;32.00;;
51525;SDS011;37611;51.794;21.590;2022-12-10T21:27:47;55.90;;;30.30;;
51525;SDS011;37611;51.794;21.590;2022-12-10T21:31:49;53.10;;;31.70;;
51525;SDS011;37611;51.794;21.590;2022-12-10T21:35:51;55.00;;;28.80;;
51525;SDS011;37611;51.794;21.590;2022-12-10T21:39:55;49.50;;;26.80;;
51525;SDS011;37611;51.794;21.590;2022-12-10T21:43:58;52.30;;;32.70;;
51525;SDS011;37611;51.794;21.590;2022-12-10T21:48:00;50.90;;;26.90;;
51525;SDS011;37611;51.794;21.590;2022-12-10T21:52:02;62.70;;;36.10;;
51525;SDS011;37611;51.794;21.590;2022-12-10T21:56:07;66.50;;;35.60;;
51525;SDS011;37611;51.794;21.590;2022-12-10T22:00:11;63.60;;;34.00;;
51525;SDS011;37611;51.794;21.590;2022-12-10T22:04:13;65.70;;;38.40;;
51525;SDS011;37611;51.794;21.590;2022-12-10T22:08:15;56.60;;;36.90;;
51525;SDS011;37611;51.794;21.590;2022-12-10T22:12:17;59.60;;;32.90;;
51525;SDS011;37611;51.794;21.590;2022-12-10T22:16:19;62.80;;;34.40;;
51525;SDS011;37611;51.794;21.590;2022-12-10T22:20:20;52.40;;;30.10;;
51525;SDS011;37611;51.794;21.590;2022-12-10T22:24:22;55.80;;;33.20;;
51525;SDS011;37611;51.794;21.590;2022-12-10T22:28:24;54.30;;;32.50;;
51525;SDS011;37611;51.794;21.590;2022-12-10T22:32:28;52.10;;;27.90;;
51525;SDS011;37611;51.794;21.590;2022-12-10T22:36:30;56.00;;;31.60;;
51525;SDS011;37611;51.794;21.590;2022-12-10T22:40:32;56.90;;;30.20;;
51525;SDS011;37611;51.794;21.590;2022-12-10T22:44:34;57.60;;;32.70;;
51525;SDS011;37611;51.794;21.590;2022-12-10T22:48:36;63.40;;;35.00;;
51525;SDS011;37611;51.794;21.590;2022-12-10T22:52:38;92.50;;;56.50;;
51525;SDS011;37611;51.794;21.590;2022-12-10T22:56:40;324.00;;;166.20;;
51525;SDS011;37611;51.794;21.590;2022-12-10T23:00:45;54.10;;;32.20;;
51525;SDS011;37611;51.794;21.590;2022-12-10T23:04:48;114.80;;;84.10;;
51525;SDS011;37611;51.794;21.590;2022-12-10T23:08:50;83.30;;;49.70;;
51525;SDS011;37611;51.794;21.590;2022-12-10T23:12:52;98.50;;;58.20;;
51525;SDS011;37611;51.794;21.590;2022-12-10T23:17:06;88.60;;;51.10;;
51525;SDS011;37611;51.794;21.590;2022-12-10T23:21:15;159.50;;;97.60;;
51525;SDS011;37611;51.794;21.590;2022-12-10T23:25:20;94.60;;;53.00;;
51525;SDS011;37611;51.794;21.590;2022-12-10T23:29:22;77.50;;;44.90;;
51525;SDS011;37611;51.794;21.590;2022-12-10T23:33:24;85.00;;;55.60;;
51525;SDS011;37611;51.794;21.590;2022-12-10T23:37:26;66.50;;;41.10;;
51525;SDS011;37611;51.794;21.590;2022-12-10T23:41:30;57.80;;;34.00;;
51525;SDS011;37611;51.794;21.590;2022-12-10T23:45:31;54.80;;;29.20;;
51525;SDS011;37611;51.794;21.590;2022-12-10T23:49:33;57.70;;;32.20;;
51525;SDS011;37611;51.794;21.590;2022-12-10T23:53:35;48.20;;;28.00;;
51525;SDS011;37611;51.794;21.590;2022-12-10T23:57:37;49.50;;;28.50;;
